Time;durP1;ratioP1;P1;durP2;ratioP2;P2;SDS_P1;SDS_P2;PMS_P1;PMS_P2;Temp;Humidity;BMP_temperature;BMP_pressure;BME280_temperature;BME280_humidity;BME280_pressure;Samples;Min_cycle;Max_cycle;Signal;HPM_P1;HPM_P2
2024/02/11 06:01:40;;;;;;;1.13;0.50;;;6.40;93.50;;;;;;4268814;23;1048941;-79
2024/02/11 06:03:42;;;;;;;1.25;0.50;;;6.50;93.70;;;;;;4058458;29;20570;-78
2024/02/11 06:05:45;;;;;;;1.88;0.60;;;6.40;93.80;;;;;;4055711;29;20072;-78
2024/02/11 06:07:50;;;;;;;0.70;0.40;;;6.50;93.80;;;;;;4058626;29;20139;-79
2024/02/11 06:09:52;;;;;;;1.45;0.60;;;6.50;93.70;;;;;;4053835;29;20131;-79
2024/02/11 06:11:55;;;;;;;1.38;0.60;;;6.40;93.90;;;;;;4053441;29;20048;-80
2024/02/11 06:13:57;;;;;;;1.60;0.60;;;6.40;94.00;;;;;;4053514;29;20047;-80
2024/02/11 06:15:59;;;;;;;1.27;0.57;;;6.40;94.10;;;;;;4053208;29;20112;-81
2024/02/11 06:18:02;;;;;;;0.90;0.47;;;6.40;94.20;;;;;;4054019;29;20056;-79
2024/02/11 06:20:09;;;;;;;1.02;0.50;;;6.40;94.10;;;;;;4053777;29;20112;-79
2024/02/11 06:22:11;;;;;;;0.93;0.38;;;6.40;94.10;;;;;;4053916;29;20052;-79
2024/02/11 06:24:14;;;;;;;0.80;0.40;;;6.40;94.10;;;;;;4053500;29;20048;-79
2024/02/11 06:26:16;;;;;;;0.82;0.40;;;6.40;94.20;;;;;;4053618;29;20060;-80
2024/02/11 06:28:19;;;;;;;1.33;0.60;;;6.30;94.30;;;;;;4054214;29;20052;-80
2024/02/11 06:30:24;;;;;;;1.20;0.60;;;6.40;94.40;;;;;;4054398;29;20058;-78
2024/02/11 06:32:26;;;;;;;1.15;0.60;;;6.30;94.20;;;;;;4053603;29;20079;-77
2024/02/11 06:34:29;;;;;;;2.10;0.60;;;6.40;94.10;;;;;;4053774;29;20056;-78
2024/02/11 06:36:37;;;;;;;1.80;0.75;;;6.30;94.30;;;;;;4053085;29;20101;-79
2024/02/11 06:38:40;;;;;;;1.60;0.60;;;6.40;94.30;;;;;;4053793;29;20080;-78
2024/02/11 06:40:42;;;;;;;2.05;0.70;;;6.40;94.40;;;;;;4052967;29;20052;-79
2024/02/11 06:42:47;;;;;;;2.55;0.70;;;6.40;94.10;;;;;;4053031;29;20048;-78
2024/02/11 06:44:49;;;;;;;3.38;0.80;;;6.40;94.30;;;;;;4045370;29;20462;-80
2024/02/11 06:46:50;;;;;;;2.17;0.70;;;6.50;93.90;;;;;;4049751;29;20080;-78
2024/02/11 06:48:52;;;;;;;1.70;0.80;;;6.50;94.00;;;;;;4053265;29;20045;-77
2024/02/11 06:50:57;;;;;;;2.17;0.80;;;6.50;93.90;;;;;;4051929;29;20514;-77
2024/02/11 06:52:59;;;;;;;2.20;0.75;;;6.50;93.50;;;;;;4043240;29;20113;-79
2024/02/11 06:55:01;;;;;;;3.22;0.95;;;6.50;93.90;;;;;;4052156;29;20048;-77
2024/02/11 06:57:03;;;;;;;1.60;0.75;;;6.50;93.80;;;;;;4053276;29;20056;-80
2024/02/11 06:59:05;;;;;;;2.17;0.70;;;6.50;93.60;;;;;;4043313;29;20490;-79
2024/02/11 07:01:09;;;;;;;1.88;0.70;;;6.50;93.50;;;;;;4062664;29;20052;-81
2024/02/11 07:03:11;;;;;;;2.28;0.90;;;6.60;93.70;;;;;;4060315;29;20044;-77
2024/02/11 07:05:15;;;;;;;3.00;0.93;;;6.60;93.90;;;;;;4052567;29;20283;-77
2024/02/11 07:07:18;;;;;;;2.60;1.00;;;6.60;93.80;;;;;;4048047;29;20491;-79
2024/02/11 07:09:22;;;;;;;2.70;1.13;;;6.70;93.90;;;;;;4046116;29;20109;-78
2024/02/11 07:11:24;;;;;;;2.28;0.80;;;6.70;94.10;;;;;;4053312;29;20044;-81
2024/02/11 07:13:26;;;;;;;2.25;0.95;;;6.70;93.70;;;;;;4052807;29;20048;-78
2024/02/11 07:15:28;;;;;;;2.35;1.00;;;6.70;93.90;;;;;;4052749;29;20487;-78
2024/02/11 07:17:30;;;;;;;2.75;1.10;;;6.70;93.80;;;;;;4053241;29;20056;-81
2024/02/11 07:19:33;;;;;;;2.78;1.27;;;6.80;93.90;;;;;;4062702;29;20088;-78
2024/02/11 07:21:36;;;;;;;2.45;1.13;;;6.80;93.60;;;;;;4067679;29;20052;-79
2024/02/11 07:23:41;;;;;;;4.20;1.20;;;6.80;93.60;;;;;;4062658;29;20649;-79
2024/02/11 07:25:45;;;;;;;2.67;1.00;;;6.80;93.70;;;;;;4068265;29;20115;-80
2024/02/11 07:27:47;;;;;;;7.20;3.72;;;6.80;93.50;;;;;;4068330;29;20083;-79
2024/02/11 07:29:49;;;;;;;3.67;1.58;;;6.90;93.60;;;;;;4068310;29;20068;-78
2024/02/11 07:31:51;;;;;;;7.57;3.92;;;6.90;93.40;;;;;;4064630;29;20108;-78
2024/02/11 07:33:54;;;;;;;4.22;1.55;;;6.90;93.40;;;;;;4055201;29;20095;-78
2024/02/11 07:35:54;;;;;;;4.25;1.95;;;6.90;93.40;;;;;;4061328;29;20044;-80
2024/02/11 07:37:56;;;;;;;10.23;5.07;;;6.90;93.40;;;;;;4056974;29;20120;-78
2024/02/11 07:39:59;;;;;;;9.57;3.88;;;6.90;93.60;;;;;;4066641;29;20458;-77
2024/02/11 07:42:01;;;;;;;3.38;1.48;;;7.00;93.30;;;;;;4017017;29;20407;-78
2024/02/11 07:44:06;;;;;;;2.85;1.40;;;7.00;93.30;;;;;;4036879;29;20104;-78
2024/02/11 07:46:07;;;;;;;5.53;2.42;;;7.00;93.20;;;;;;4037340;29;20399;-79
2024/02/11 07:48:09;;;;;;;2.95;1.40;;;7.00;93.70;;;;;;4037134;29;20097;-79
2024/02/11 07:50:14;;;;;;;7.93;3.53;;;7.00;93.30;;;;;;4036858;29;20082;-77
2024/02/11 07:52:17;;;;;;;3.58;1.45;;;7.00;93.20;;;;;;4035235;29;20542;-80
2024/02/11 07:54:20;;;;;;;3.58;1.60;;;7.10;93.30;;;;;;4040119;29;20053;-78
2024/02/11 07:56:23;;;;;;;3.50;1.70;;;7.10;93.20;;;;;;4042338;29;20059;-77
2024/02/11 07:58:24;;;;;;;5.15;2.30;;;7.00;93.00;;;;;;4039941;29;20124;-78
2024/02/11 08:00:26;;;;;;;5.03;2.42;;;7.10;93.20;;;;;;4039604;29;20048;-77
2024/02/11 08:02:28;;;;;;;3.58;1.60;;;7.10;93.10;;;;;;4039915;29;20106;-77
2024/02/11 08:04:30;;;;;;;3.65;1.70;;;7.10;93.10;;;;;;4047854;29;20475;-79
2024/02/11 08:06:32;;;;;;;4.68;1.73;;;7.20;93.10;;;;;;4055193;29;20080;-78
2024/02/11 08:08:33;;;;;;;4.13;1.67;;;7.20;93.00;;;;;;4050466;29;20049;-76
2024/02/11 08:10:35;;;;;;;3.67;1.70;;;7.20;92.90;;;;;;4040442;29;20045;-77
2024/02/11 08:12:38;;;;;;;3.60;1.60;;;7.30;93.00;;;;;;4039995;29;20053;-78
2024/02/11 08:14:40;;;;;;;3.20;1.50;;;7.30;92.90;;;;;;4049033;29;20055;-79
2024/02/11 08:16:42;;;;;;;5.35;2.10;;;7.40;92.80;;;;;;4055469;29;20049;-78
2024/02/11 08:18:44;;;;;;;4.25;2.00;;;7.40;92.70;;;;;;4055458;29;20095;-79
2024/02/11 08:20:45;;;;;;;3.92;2.15;;;7.40;92.60;;;;;;4041640;29;20053;-80
2024/02/11 08:22:47;;;;;;;4.90;2.22;;;7.40;92.60;;;;;;4046825;29;20085;-79
2024/02/11 08:24:48;;;;;;;4.95;1.90;;;7.30;92.70;;;;;;4045809;29;20049;-79
2024/02/11 08:26:50;;;;;;;4.57;2.00;;;7.30;92.40;;;;;;4043522;29;20105;-78
2024/02/11 08:28:59;;;;;;;4.25;2.00;;;7.30;92.30;;;;;;4039401;29;20045;-77
2024/02/11 08:31:00;;;;;;;4.00;2.20;;;7.30;92.40;;;;;;4038762;29;20060;-79
2024/02/11 08:33:02;;;;;;;6.68;2.75;;;7.40;92.60;;;;;;4051437;29;20392;-79
2024/02/11 08:35:05;;;;;;;5.20;2.30;;;7.40;92.60;;;;;;4054175;29;20044;-79
2024/02/11 08:37:08;;;;;;;6.85;2.55;;;7.40;92.40;;;;;;4052765;29;20471;-77
2024/02/11 08:39:10;;;;;;;6.15;2.60;;;7.40;92.50;;;;;;4024948;29;20073;-76
2024/02/11 08:41:12;;;;;;;5.20;2.55;;;7.40;92.70;;;;;;4041311;29;20048;-79
2024/02/11 08:43:14;;;;;;;5.78;2.65;;;7.40;92.70;;;;;;4036024;29;20049;-81
2024/02/11 08:45:18;;;;;;;5.63;2.50;;;7.40;92.60;;;;;;4025220;29;20049;-78
2024/02/11 08:47:20;;;;;;;4.70;2.63;;;7.40;92.60;;;;;;4041424;29;20056;-80
2024/02/11 08:49:22;;;;;;;6.38;2.67;;;7.40;92.80;;;;;;4044955;29;20499;-79
2024/02/11 08:51:24;;;;;;;5.32;2.92;;;7.50;92.80;;;;;;4039526;29;20057;-78
2024/02/11 08:53:27;;;;;;;7.45;3.03;;;7.50;92.70;;;;;;4039195;29;20147;-78
2024/02/11 08:55:30;;;;;;;6.55;3.10;;;7.60;92.70;;;;;;4039310;29;20049;-80
2024/02/11 08:57:31;;;;;;;5.72;3.13;;;7.50;92.60;;;;;;4037918;29;20143;-80
2024/02/11 08:59:33;;;;;;;5.47;2.90;;;7.60;92.40;;;;;;4037514;29;20502;-78
2024/02/11 09:01:36;;;;;;;6.43;3.08;;;7.60;92.40;;;;;;4039048;29;20121;-78
2024/02/11 09:03:38;;;;;;;7.15;3.05;;;7.70;92.40;;;;;;4038697;29;20139;-79
2024/02/11 09:05:41;;;;;;;7.18;3.70;;;7.70;92.20;;;;;;4039319;29;20053;-79
2024/02/11 09:07:43;;;;;;;7.70;3.30;;;7.70;92.20;;;;;;4034310;29;20048;-79
2024/02/11 09:09:45;;;;;;;7.03;3.97;;;7.70;92.10;;;;;;4029253;29;20411;-79
2024/02/11 09:11:47;;;;;;;7.85;3.72;;;7.70;92.00;;;;;;4033011;29;20060;-79
2024/02/11 09:13:49;;;;;;;13.02;5.90;;;7.80;92.00;;;;;;4039022;29;20049;-80
2024/02/11 09:15:52;;;;;;;8.05;3.53;;;7.80;92.40;;;;;;4043409;29;20045;-78
2024/02/11 09:17:57;;;;;;;8.65;4.22;;;7.80;91.60;;;;;;4036473;29;20057;-78
2024/02/11 09:19:58;;;;;;;9.43;4.65;;;7.80;91.80;;;;;;4036506;29;20052;-81
2024/02/11 09:22:05;;;;;;;31.17;14.80;;;7.90;92.20;;;;;;4037734;29;20483;-78
2024/02/11 09:24:07;;;;;;;14.82;6.82;;;7.90;91.90;;;;;;4040538;29;20072;-77
2024/02/11 09:26:10;;;;;;;7.13;3.83;;;7.90;91.40;;;;;;4034385;29;20080;-83
2024/02/11 09:28:12;;;;;;;8.70;4.10;;;7.90;91.60;;;;;;4034665;29;20060;-81
2024/02/11 09:30:15;;;;;;;7.35;3.63;;;8.00;91.50;;;;;;4043775;29;20361;-80
2024/02/11 09:32:16;;;;;;;8.98;4.43;;;8.00;91.40;;;;;;4032723;29;20045;-77
2024/02/11 09:34:21;;;;;;;9.50;3.60;;;8.10;91.30;;;;;;4038845;29;20061;-79
2024/02/11 09:36:23;;;;;;;6.00;3.42;;;8.10;91.10;;;;;;4038125;29;20090;-78
2024/02/11 09:38:25;;;;;;;9.60;3.80;;;8.10;91.00;;;;;;4031832;29;20466;-78
2024/02/11 09:40:27;;;;;;;7.32;3.60;;;8.10;90.90;;;;;;4034860;29;20056;-77
2024/02/11 09:42:29;;;;;;;10.18;4.10;;;8.20;91.10;;;;;;4039203;29;20053;-79
2024/02/11 09:44:35;;;;;;;8.40;3.33;;;8.20;90.80;;;;;;4039452;29;20049;-77
2024/02/11 09:46:41;;;;;;;7.15;3.60;;;8.20;90.60;;;;;;4039144;29;20053;-77
2024/02/11 09:48:45;;;;;;;9.65;3.88;;;8.30;90.60;;;;;;4038689;29;20056;-78
2024/02/11 09:50:49;;;;;;;8.90;3.83;;;8.40;90.80;;;;;;4053819;29;20060;-76
2024/02/11 09:52:50;;;;;;;7.00;3.60;;;8.50;90.40;;;;;;4050718;29;20044;-78
2024/02/11 09:54:53;;;;;;;8.75;4.15;;;8.50;90.30;;;;;;4053566;29;20482;-79
2024/02/11 09:56:54;;;;;;;9.57;4.22;;;8.40;90.00;;;;;;4052236;29;20498;-80
2024/02/11 09:58:57;;;;;;;7.03;3.53;;;8.50;90.30;;;;;;4041455;29;20051;-80
2024/02/11 10:01:00;;;;;;;8.27;3.85;;;8.40;90.10;;;;;;4021200;29;20068;-77
2024/02/11 10:03:04;;;;;;;9.18;4.15;;;8.50;90.40;;;;;;4047870;29;20101;-80
2024/02/11 10:05:09;;;;;;;8.45;3.72;;;8.60;90.20;;;;;;4038329;29;20056;-80
2024/02/11 10:07:28;;;;;;;11.43;3.70;;;8.60;89.60;;;;;;4022776;29;20050;-80
2024/02/11 10:09:29;;;;;;;7.45;3.42;;;8.70;89.60;;;;;;4036494;29;20556;-78
2024/02/11 10:11:33;;;;;;;6.32;3.50;;;8.60;88.30;;;;;;4028997;29;20050;-78
2024/02/11 10:13:36;;;;;;;6.72;3.78;;;8.60;89.60;;;;;;4038332;29;20059;-78
2024/02/11 10:15:40;;;;;;;7.45;3.38;;;8.70;88.40;;;;;;4037846;29;20086;-78
2024/02/11 10:17:42;;;;;;;8.45;3.30;;;8.70;88.40;;;;;;4035768;29;20049;-78
2024/02/11 10:19:44;;;;;;;7.78;3.20;;;8.70;88.00;;;;;;4030002;29;20502;-76
2024/02/11 10:21:47;;;;;;;7.68;3.47;;;8.80;88.10;;;;;;4039351;29;20049;-78
2024/02/11 10:23:51;;;;;;;6.65;3.20;;;8.90;88.60;;;;;;4037770;29;20498;-75
2024/02/11 10:25:53;;;;;;;8.07;3.80;;;9.00;88.20;;;;;;4038387;29;20128;-77
2024/02/11 10:27:55;;;;;;;7.00;3.35;;;9.00;87.80;;;;;;4041715;29;20055;-76
2024/02/11 10:29:58;;;;;;;7.97;3.50;;;9.00;86.80;;;;;;4053764;29;20055;-78
2024/02/11 10:32:00;;;;;;;7.85;3.40;;;9.10;87.20;;;;;;4048775;29;20057;-81
2024/02/11 10:34:03;;;;;;;6.55;3.22;;;9.10;86.70;;;;;;4042362;29;20117;-78
2024/02/11 10:36:06;;;;;;;8.25;3.53;;;9.10;86.00;;;;;;4039190;29;20523;-81
2024/02/11 10:38:09;;;;;;;4.95;2.80;;;9.00;86.30;;;;;;4041001;29;20049;-80
2024/02/11 10:40:11;;;;;;;5.80;2.92;;;9.10;85.80;;;;;;4037863;29;20109;-77
2024/02/11 10:42:14;;;;;;;7.15;3.25;;;9.00;84.80;;;;;;4037604;29;20064;-77
2024/02/11 10:44:16;;;;;;;11.15;6.22;;;9.10;85.60;;;;;;4038165;29;20452;-77
2024/02/11 10:46:19;;;;;;;6.65;3.50;;;9.20;85.50;;;;;;4052754;29;20088;-77
2024/02/11 10:48:21;;;;;;;6.85;2.92;;;9.20;85.30;;;;;;4038863;29;20081;-81
2024/02/11 10:50:23;;;;;;;7.45;2.75;;;9.20;84.30;;;;;;4054934;29;20101;-80
2024/02/11 10:52:31;;;;;;;5.72;3.10;;;9.20;84.10;;;;;;4053699;29;20056;-81
2024/02/11 10:54:41;;;;;;;5.80;2.65;;;9.10;83.80;;;;;;4035860;29;20064;-83
2024/02/11 10:56:44;;;;;;;6.80;2.80;;;9.20;84.10;;;;;;4038997;29;20053;-82
2024/02/11 10:58:54;;;;;;;9.25;3.00;;;9.20;84.50;;;;;;4039194;29;20057;-82
2024/02/11 11:00:57;;;;;;;7.85;3.33;;;9.00;84.80;;;;;;4038616;29;20053;-81
2024/02/11 11:03:01;;;;;;;7.18;2.88;;;9.10;85.70;;;;;;4039528;29;20061;-81
2024/02/11 11:05:09;;;;;;;8.27;3.47;;;9.20;85.70;;;;;;4040611;29;20086;-81
2024/02/11 11:07:15;;;;;;;5.97;2.95;;;9.30;86.20;;;;;;4038870;29;20457;-82
2024/02/11 11:09:17;;;;;;;5.40;3.08;;;9.40;85.50;;;;;;4038488;29;20053;-82
2024/02/11 11:11:25;;;;;;;7.20;2.95;;;9.50;85.20;;;;;;4038775;29;20109;-81
2024/02/11 11:13:28;;;;;;;6.10;2.70;;;9.50;83.90;;;;;;4039088;29;20480;-82
2024/02/11 11:15:31;;;;;;;8.02;3.00;;;9.50;84.90;;;;;;4039597;29;20053;-82
2024/02/11 11:17:36;;;;;;;7.85;2.90;;;9.50;85.50;;;;;;4040432;29;20057;-80
2024/02/11 11:19:38;;;;;;;7.57;2.73;;;9.50;84.70;;;;;;4041936;29;20129;-81
2024/02/11 11:21:51;;;;;;;7.20;2.80;;;9.50;83.40;;;;;;4042726;29;20807;-80
2024/02/11 11:23:53;;;;;;;6.88;3.55;;;9.50;84.80;;;;;;4042099;29;20109;-82
2024/02/11 11:25:56;;;;;;;9.57;5.03;;;9.60;84.80;;;;;;4042159;29;20055;-81
2024/02/11 11:28:11;;;;;;;9.02;3.90;;;9.70;83.20;;;;;;4044760;29;20467;-81
2024/02/11 11:30:15;;;;;;;7.30;2.75;;;9.60;83.50;;;;;;4044097;29;20479;-81
2024/02/11 11:32:23;;;;;;;5.10;2.55;;;9.60;83.70;;;;;;4071315;29;20458;-82
2024/02/11 11:34:25;;;;;;;5.28;2.60;;;9.60;83.20;;;;;;4041323;29;20053;-82
2024/02/11 11:36:26;;;;;;;5.20;2.42;;;9.50;83.30;;;;;;4041525;29;20518;-81
2024/02/11 11:38:28;;;;;;;5.38;2.50;;;9.40;83.60;;;;;;4042234;29;20045;-81
2024/02/11 11:40:32;;;;;;;5.93;2.40;;;9.30;84.20;;;;;;4041053;29;20060;-81
2024/02/11 11:42:34;;;;;;;6.88;2.58;;;9.20;83.80;;;;;;4042921;29;20045;-83
2024/02/11 11:44:36;;;;;;;5.35;2.20;;;9.30;84.20;;;;;;4043256;29;20083;-83
2024/02/11 11:46:39;;;;;;;5.07;2.50;;;9.30;84.30;;;;;;4073209;29;20387;-81
2024/02/11 11:48:41;;;;;;;6.32;2.67;;;9.30;83.60;;;;;;4041410;29;20060;-80
2024/02/11 11:50:43;;;;;;;6.15;2.50;;;9.20;82.90;;;;;;4041232;29;20109;-82
2024/02/11 11:52:46;;;;;;;6.68;2.70;;;9.30;83.70;;;;;;4041557;29;20053;-83
2024/02/11 11:54:48;;;;;;;6.07;2.22;;;9.40;83.30;;;;;;4041002;29;20464;-83
2024/02/11 11:56:56;;;;;;;6.03;2.80;;;9.30;82.90;;;;;;4041351;29;20506;-80
2024/02/11 11:59:03;;;;;;;6.00;2.50;;;9.30;83.50;;;;;;4041433;29;20494;-82
2024/02/11 12:01:07;;;;;;;4.38;2.20;;;9.30;82.90;;;;;;4040968;29;20140;-81
2024/02/11 12:03:11;;;;;;;4.93;2.28;;;9.40;82.50;;;;;;4041534;29;20075;-82
2024/02/11 12:05:13;;;;;;;4.53;2.10;;;9.40;82.50;;;;;;4041738;29;20088;-80
2024/02/11 12:07:17;;;;;;;6.65;2.40;;;9.40;81.80;;;;;;4041885;29;20081;-82
2024/02/11 12:09:19;;;;;;;6.45;2.38;;;9.50;82.10;;;;;;4044739;29;20060;-82
2024/02/11 12:11:21;;;;;;;4.60;2.05;;;9.70;82.40;;;;;;4042322;29;20105;-81
2024/02/11 12:13:25;;;;;;;4.82;2.03;;;9.80;80.00;;;;;;4042421;29;20057;-80
2024/02/11 12:15:27;;;;;;;4.47;1.95;;;9.70;80.00;;;;;;4041918;29;20140;-82
2024/02/11 12:17:29;;;;;;;5.07;1.90;;;9.80;79.60;;;;;;4041402;29;20464;-83
2024/02/11 12:19:38;;;;;;;4.03;1.95;;;9.90;79.70;;;;;;4041146;29;20318;-82
2024/02/11 12:21:39;;;;;;;4.72;1.77;;;10.00;79.80;;;;;;4042671;29;20483;-82
2024/02/11 12:23:41;;;;;;;4.10;1.95;;;10.00;79.70;;;;;;4033399;29;20049;-82
2024/02/11 12:25:44;;;;;;;5.43;2.70;;;10.00;78.60;;;;;;4027832;29;20049;-81
2024/02/11 12:27:50;;;;;;;5.20;2.53;;;10.10;79.10;;;;;;4025327;29;20060;-81
2024/02/11 12:29:56;;;;;;;4.65;2.00;;;10.10;78.70;;;;;;4027880;29;20050;-80
2024/02/11 12:31:59;;;;;;;2.92;1.40;;;10.20;77.70;;;;;;4025334;29;20052;-81
2024/02/11 12:34:04;;;;;;;3.70;1.60;;;10.30;76.70;;;;;;4024382;29;20065;-80
2024/02/11 12:36:09;;;;;;;4.90;1.83;;;10.20;76.80;;;;;;4037528;29;20048;-80
2024/02/11 12:38:11;;;;;;;3.15;1.40;;;10.00;76.60;;;;;;4039395;29;20056;-81
2024/02/11 12:40:18;;;;;;;3.38;1.50;;;10.10;77.20;;;;;;4041412;29;20057;-82
2024/02/11 12:42:21;;;;;;;4.97;1.52;;;10.20;76.30;;;;;;4041763;29;20414;-81
2024/02/11 12:44:23;;;;;;;3.20;1.48;;;10.20;76.70;;;;;;4041442;29;20087;-80
2024/02/11 12:46:25;;;;;;;3.97;1.73;;;10.10;76.80;;;;;;4043200;29;20452;-80
2024/02/11 12:48:27;;;;;;;4.05;1.40;;;10.00;77.50;;;;;;4039943;29;20500;-81
2024/02/11 12:50:29;;;;;;;5.22;1.52;;;10.00;77.50;;;;;;4039382;29;20053;-80
2024/02/11 12:52:33;;;;;;;3.15;1.50;;;9.80;77.40;;;;;;4040740;29;20483;-82
2024/02/11 12:54:35;;;;;;;4.53;1.30;;;9.70;77.20;;;;;;4040983;29;20053;-80
2024/02/11 12:56:37;;;;;;;4.97;1.75;;;9.60;77.10;;;;;;4041602;29;20105;-82
2024/02/11 12:58:40;;;;;;;3.22;1.50;;;9.70;78.00;;;;;;4044417;29;20106;-82
2024/02/11 13:00:41;;;;;;;4.97;1.48;;;9.80;77.20;;;;;;4045639;29;20086;-79
2024/02/11 13:02:43;;;;;;;4.00;1.48;;;9.80;77.30;;;;;;4057522;29;20089;-84
2024/02/11 13:04:44;;;;;;;2.78;1.30;;;9.90;77.70;;;;;;4043083;29;20083;-80
2024/02/11 13:06:46;;;;;;;3.38;1.40;;;10.00;76.80;;;;;;4042637;29;20135;-81
2024/02/11 13:08:50;;;;;;;3.72;1.40;;;10.60;76.50;;;;;;4043089;29;20061;-81
2024/02/11 13:10:52;;;;;;;2.97;1.50;;;10.80;74.80;;;;;;4045096;29;20077;-83
2024/02/11 13:12:53;;;;;;;5.57;1.45;;;11.30;74.00;;;;;;4041959;29;20144;-82
2024/02/11 13:14:55;;;;;;;3.67;1.15;;;11.60;74.30;;;;;;4042188;29;20053;-81
2024/02/11 13:16:59;;;;;;;3.17;1.20;;;12.20;69.20;;;;;;4042307;29;20510;-82
2024/02/11 13:19:02;;;;;;;3.00;1.30;;;12.20;68.20;;;;;;4040107;29;20045;-83
2024/02/11 13:21:06;;;;;;;5.35;1.83;;;12.00;67.60;;;;;;4041444;29;20052;-82
2024/02/11 13:23:09;;;;;;;7.07;3.25;;;12.30;66.50;;;;;;4040724;29;20057;-83
2024/02/11 13:25:12;;;;;;;5.55;2.88;;;12.30;65.20;;;;;;4039310;29;20084;-81
2024/02/11 13:27:15;;;;;;;3.00;1.20;;;12.00;66.20;;;;;;4039721;29;20055;-80
2024/02/11 13:29:17;;;;;;;3.08;1.00;;;11.80;65.70;;;;;;4039957;29;20254;-81
2024/02/11 13:31:19;;;;;;;2.58;1.13;;;11.30;67.60;;;;;;4039768;29;20049;-80
2024/02/11 13:33:21;;;;;;;8.38;3.65;;;11.20;68.10;;;;;;4039520;29;20176;-80
2024/02/11 13:35:23;;;;;;;4.45;1.90;;;10.90;69.40;;;;;;4040538;29;20131;-81
2024/02/11 13:37:25;;;;;;;2.30;1.20;;;10.70;70.10;;;;;;4040280;29;20117;-81
2024/02/11 13:39:29;;;;;;;3.58;1.30;;;10.60;69.90;;;;;;4040594;29;20112;-80
2024/02/11 13:41:33;;;;;;;3.67;1.30;;;10.60;70.10;;;;;;4040603;29;20045;-82
2024/02/11 13:43:34;;;;;;;3.33;1.30;;;10.50;70.10;;;;;;4038552;29;20112;-81
2024/02/11 13:45:36;;;;;;;3.58;1.02;;;10.50;70.20;;;;;;4039386;29;20136;-82
2024/02/11 13:47:38;;;;;;;3.50;1.30;;;10.60;69.90;;;;;;4039195;29;20125;-81
2024/02/11 13:49:40;;;;;;;3.08;1.23;;;10.50;69.80;;;;;;4039551;29;20483;-81
2024/02/11 13:51:42;;;;;;;5.40;1.40;;;10.60;70.30;;;;;;4041406;29;20085;-81
2024/02/11 13:53:44;;;;;;;4.22;1.23;;;10.80;70.70;;;;;;4040098;29;20101;-81
2024/02/11 13:55:46;;;;;;;2.70;1.00;;;10.80;69.60;;;;;;4040405;29;20077;-81
2024/02/11 13:57:50;;;;;;;2.13;0.90;;;10.70;70.00;;;;;;4041225;29;20049;-86
2024/02/11 13:59:52;;;;;;;2.55;1.10;;;10.60;69.20;;;;;;4040382;29;20048;-82
2024/02/11 14:01:54;;;;;;;3.20;1.20;;;10.80;69.70;;;;;;4040008;29;20068;-83
2024/02/11 14:03:56;;;;;;;3.15;1.10;;;11.40;68.50;;;;;;4039874;29;20124;-80
2024/02/11 14:05:59;;;;;;;3.42;1.10;;;11.10;68.20;;;;;;4039488;29;20057;-81
2024/02/11 14:08:03;;;;;;;3.85;1.20;;;13.90;62.40;;;;;;4038891;29;20109;-81
2024/02/11 14:10:06;;;;;;;4.22;1.20;;;14.10;59.00;;;;;;4039159;29;20139;-79
2024/02/11 14:12:09;;;;;;;4.68;1.40;;;13.20;60.10;;;;;;4039856;29;20470;-81
2024/02/11 14:14:13;;;;;;;3.63;1.20;;;12.60;61.20;;;;;;4039260;29;20136;-81
2024/02/11 14:16:15;;;;;;;3.95;1.10;;;12.60;62.30;;;;;;4040322;29;20049;-81
2024/02/11 14:18:17;;;;;;;3.78;1.20;;;12.20;62.70;;;;;;4043676;29;20080;-81
2024/02/11 14:20:21;;;;;;;4.55;1.30;;;11.90;64.20;;;;;;4042510;29;20056;-78
2024/02/11 14:22:23;;;;;;;2.72;1.10;;;11.50;65.30;;;;;;4038680;29;20059;-81
2024/02/11 14:24:25;;;;;;;3.88;1.20;;;11.30;66.40;;;;;;4038695;29;20053;-82
2024/02/11 14:26:27;;;;;;;4.07;1.30;;;11.00;67.20;;;;;;4037831;29;20117;-80
2024/02/11 14:28:28;;;;;;;3.60;1.27;;;11.00;68.50;;;;;;4040587;29;20109;-81
2024/02/11 14:30:31;;;;;;;3.08;1.20;;;11.20;68.10;;;;;;4036288;29;20476;-82
2024/02/11 14:32:34;;;;;;;3.80;1.30;;;11.30;67.20;;;;;;4025391;29;20109;-81
2024/02/11 14:34:35;;;;;;;4.57;1.48;;;11.20;67.30;;;;;;4062757;29;20052;-83
2024/02/11 14:36:38;;;;;;;3.40;1.00;;;11.20;67.70;;;;;;4039209;29;20052;-81
2024/02/11 14:38:42;;;;;;;3.70;1.20;;;11.30;67.70;;;;;;4039504;29;20467;-81
2024/02/11 14:40:44;;;;;;;3.55;1.48;;;11.30;67.70;;;;;;4039024;29;20056;-82
2024/02/11 14:42:47;;;;;;;2.90;1.30;;;11.20;67.30;;;;;;4040114;29;20052;-81
2024/02/11 14:44:50;;;;;;;4.63;1.30;;;11.30;66.90;;;;;;4039437;29;20056;-81
2024/02/11 14:46:53;;;;;;;4.75;1.30;;;11.20;67.00;;;;;;4038891;29;20045;-84
2024/02/11 14:48:56;;;;;;;3.17;1.10;;;11.00;67.80;;;;;;4038694;29;20102;-81
2024/02/11 14:50:58;;;;;;;4.35;1.20;;;10.90;68.40;;;;;;4039202;29;20049;-81
2024/02/11 14:53:00;;;;;;;4.25;1.10;;;10.70;67.10;;;;;;4038891;29;20053;-81
2024/02/11 14:55:03;;;;;;;2.20;0.88;;;10.90;68.10;;;;;;4039501;29;20140;-81
2024/02/11 14:57:05;;;;;;;2.40;0.93;;;10.90;67.20;;;;;;4036766;29;20133;-80
2024/02/11 14:59:07;;;;;;;3.50;1.15;;;10.80;67.40;;;;;;4039217;29;20049;-81
2024/02/11 15:01:09;;;;;;;3.75;1.05;;;10.90;67.20;;;;;;4039211;29;20061;-82
2024/02/11 15:03:13;;;;;;;2.13;0.90;;;10.90;67.60;;;;;;4042074;29;20045;-82
2024/02/11 15:05:15;;;;;;;4.50;1.13;;;10.80;68.40;;;;;;4041880;29;20464;-81
2024/02/11 15:07:18;;;;;;;4.25;1.10;;;10.70;69.00;;;;;;4041190;29;20773;-81
2024/02/11 15:09:22;;;;;;;3.00;1.10;;;10.60;68.00;;;;;;4040307;29;20507;-81
2024/02/11 15:11:25;;;;;;;3.50;1.10;;;10.60;68.90;;;;;;4041894;29;20045;-81
2024/02/11 15:13:28;;;;;;;3.08;1.00;;;10.50;69.00;;;;;;4041822;29;20452;-80
2024/02/11 15:15:30;;;;;;;2.78;0.98;;;10.50;69.00;;;;;;4042425;29;20682;-82
2024/02/11 15:17:32;;;;;;;2.72;1.10;;;10.50;69.00;;;;;;4042467;29;20049;-81
2024/02/11 15:19:37;;;;;;;4.88;1.50;;;10.60;68.90;;;;;;4044032;29;20078;-81
2024/02/11 15:21:40;;;;;;;;;;;10.60;69.20;;;;;;4042246;29;20093;-82
2024/02/11 15:23:41;;;;;;;39.10;15.63;;;10.50;69.60;;;;;;4041416;29;19931;-81
2024/02/11 15:25:43;;;;;;;7.18;3.05;;;10.50;69.80;;;;;;4039980;29;20053;-80
2024/02/11 15:27:44;;;;;;;2.45;0.98;;;10.50;70.20;;;;;;4041883;29;20467;-81
2024/02/11 15:29:46;;;;;;;4.35;1.70;;;10.60;70.50;;;;;;4041654;29;20053;-82
2024/02/11 15:31:47;;;;;;;4.13;1.83;;;12.80;64.20;;;;;;4042073;29;20049;-80
2024/02/11 15:33:49;;;;;;;3.58;1.20;;;13.50;61.80;;;;;;4041594;29;20084;-81
2024/02/11 15:35:52;;;;;;;3.75;1.05;;;12.30;62.90;;;;;;4040903;29;20057;-81
2024/02/11 15:37:53;;;;;;;3.40;1.00;;;11.60;65.80;;;;;;4041128;29;20456;-81
2024/02/11 15:39:55;;;;;;;3.00;0.77;;;11.30;67.00;;;;;;4040866;29;20468;-80
2024/02/11 15:42:00;;;;;;;2.97;1.00;;;10.80;67.70;;;;;;4041155;29;20381;-80
2024/02/11 15:44:01;;;;;;;2.50;0.80;;;10.60;67.60;;;;;;4042275;29;20084;-82
2024/02/11 15:46:03;;;;;;;1.40;0.70;;;10.50;68.60;;;;;;4041982;29;20136;-79
2024/02/11 15:48:06;;;;;;;2.10;0.80;;;10.40;68.60;;;;;;4040951;29;20056;-80
2024/02/11 15:50:09;;;;;;;3.45;0.90;;;10.40;68.80;;;;;;4026296;29;20057;-79
2024/02/11 15:52:12;;;;;;;2.72;0.90;;;10.30;68.90;;;;;;4025315;29;20086;-81
2024/02/11 15:54:14;;;;;;;2.72;0.82;;;10.30;69.10;;;;;;4025963;29;20049;-81
2024/02/11 15:56:16;;;;;;;2.38;0.70;;;10.30;69.50;;;;;;4025833;29;20081;-80
2024/02/11 15:58:19;;;;;;;3.65;0.90;;;10.20;69.90;;;;;;4026554;29;20109;-81
2024/02/11 16:00:21;;;;;;;2.95;0.80;;;10.20;70.80;;;;;;4025442;29;20062;-82
2024/02/11 16:02:23;;;;;;;2.53;0.88;;;10.20;71.90;;;;;;4025676;29;20057;-80
2024/02/11 16:04:25;;;;;;;2.10;0.77;;;10.50;71.10;;;;;;4025577;29;20465;-81
2024/02/11 16:06:27;;;;;;;2.45;0.80;;;10.40;71.10;;;;;;4025367;29;20507;-81
2024/02/11 16:08:32;;;;;;;2.42;0.73;;;10.40;71.30;;;;;;4025368;29;20054;-83
2024/02/11 16:10:34;;;;;;;2.22;0.90;;;10.40;70.60;;;;;;4025372;29;20095;-83
2024/02/11 16:12:36;;;;;;;4.60;1.00;;;10.30;70.70;;;;;;4024837;29;20065;-82
2024/02/11 16:14:38;;;;;;;3.17;1.10;;;10.40;70.70;;;;;;4024980;29;20058;-82
2024/02/11 16:16:41;;;;;;;4.85;2.47;;;10.30;70.70;;;;;;4025307;29;20053;-82
2024/02/11 16:18:43;;;;;;;7.25;3.13;;;10.40;70.90;;;;;;4025583;29;20056;-81
2024/02/11 16:20:44;;;;;;;5.57;2.40;;;10.30;71.20;;;;;;4025300;29;20100;-79
2024/02/11 16:22:46;;;;;;;3.63;0.98;;;10.30;72.00;;;;;;4026008;29;20054;-81
2024/02/11 16:24:50;;;;;;;3.08;1.13;;;10.30;71.60;;;;;;4025440;29;20136;-82
2024/02/11 16:26:53;;;;;;;2.10;0.90;;;10.20;71.50;;;;;;4029923;29;20069;-82
2024/02/11 16:28:55;;;;;;;2.60;1.05;;;10.20;71.20;;;;;;4041851;29;20053;-82
2024/02/11 16:30:58;;;;;;;3.78;1.00;;;10.10;70.90;;;;;;4039933;29;20111;-83
2024/02/11 16:33:01;;;;;;;2.17;1.00;;;10.20;71.00;;;;;;4039906;29;20056;-81
2024/02/11 16:35:05;;;;;;;2.92;1.02;;;10.10;71.20;;;;;;4039799;29;20049;-81
2024/02/11 16:37:07;;;;;;;3.65;1.00;;;10.00;71.80;;;;;;4041004;29;20045;-81
2024/02/11 16:39:09;;;;;;;3.70;1.30;;;10.00;71.70;;;;;;4041592;29;20088;-82
2024/02/11 16:41:14;;;;;;;4.03;1.35;;;10.00;71.90;;;;;;4040680;29;20110;-82
2024/02/11 16:43:16;;;;;;;2.47;1.00;;;10.00;71.90;;;;;;4041620;29;20092;-83
2024/02/11 16:45:18;;;;;;;2.83;0.93;;;10.00;71.50;;;;;;4041077;29;20057;-81